Terminal Aerodrome Forecast
Issued by NWS Charleston, WV

Current Version | Previous Version | Graphics & Text | Print | Product List | Glossary Off
Versions: 1 2 3 4 5 6 7 8 9 10 11 12 13 14 15 16 17 18 19 20 21 22 23 24 25

000
FTUS41 KRLX 291400 AAA
TAFCRW
TAF AMD
KCRW 291443Z 2915/3012 16006KT P6SM BKN200 WS020/22050KT
     FM291600 20008G18KT P6SM -RA BKN040
     FM291800 20009KT P6SM BKN050
     FM292300 27010G18KT P6SM OVC025
     FM300200 28010G18KT P6SM -RA OVC015
     FM300700 28011G20KT 4SM -SN OVC015
     FM300800 28010G18KT 2SM -SN OVC012=

USA.gov is the U.S. government's official web portal to all federal, state and local government web resources and services.